Tuesday, September 30, 2014
18:00 UTC
  |  Log In   |  Register Free
Airport Search:

Okmulgee Regional Airport
(KOKM)

Okmulgee Regional Airport Diagram
No Airport Diagram Available

FAA data valid effective September 18, 2014 - November 13, 2014 (unless otherwise noted).

 
 
 
 
 
 
 
 
 
 
 
 
 
 

Current Aviation Weather for Okmulgee Regional Airport (KOKM)

The most recent METAR observation for KOKM was updated at: 1714
METAR Summary (Translated METAR)
KOKM
301655Z AUTO 18012G18KT 10SM SCT080 27/18 A2991 RMK AO2 T02670177
KRVS
301653Z 20012KT 10SM FEW048 SCT075 28/17 A2990 RMK AO2 SLP129 T02830167
(22.4 nm NW from KOKM)
KMKO
301653Z AUTO 14008KT 10SM SCT048 26/18 A2994 RMK AO2 SLP130 T02560178
(28.6 nm SE from KOKM)
TAF Summary (Translated TAF)
KRVS
(22.4 nm NW from KOKM)
301120Z 3012/0112 00000KT P6SM FEW250 FM301600 17011KT P6SM SCT060 FM010000 16006KT P6SM SCT250
  Airport Weather Conditions for KOKM

 Current Weather at OKM
80° F
Partly Cloudy
South winds at 13.8 mph
OKM NOAA Radar

Pressure: 29.91 in
Humidity: 58%
Wind: from the South at 13.8 gusting to 20.7 MPH (12 gusting to 18 KT)
Dew Point: 63.9°F
Visibility: 10.00 mi


Airport Weather Forecast for KOKM

Translated METAR and TAF for KOKM
Translated METAR for KOKM (1754 UTC 30 September 2014)
found at http://aviationweather.gov/adds/metars/
 
METAR text: KOKM 301735Z AUTO 17012G19KT 10SM CLR 28/18 A2989 RMK AO2 T02760179
Conditions at: KOKM (OKMULGEE , OK, US) observed 1735 UTC 30 September 2014
Temperature: 27.6°C (82°F)
Dewpoint: 17.9°C (64°F) [RH = 56%]
Pressure (altimeter): 29.89 inches Hg (1012.3 mb)
Winds: from the S (170 degrees) at 14 MPH (12 knots; 6.2 m/s)
gusting to 22 MPH (19 knots; 9.9 m/s)
Visibility: 10 or more miles (16+ km)
Ceiling: at least 12,000 feet AGL
Clouds: sky clear below 12,000 feet AGL
Weather: automated observation with no human augmentation;
there may or may not be significant weather present at this time
Translated TAF for KOKM

There is no translated TAF available for this airport

Find All Airport Services Find A Hotel Find A Rental Car Find A Golf Course Find A Restaurant $100 Hamburger



FBO's on the Field
FBO Company Facility Photos Services Transportation Aviation Fuel Prices: Prices include tax
Catering Weather Repair Courtesy Rental Type 100LL JetA JetA+ MOGAS 8087
 
Okmulgee Regional Airport

This FBO has not yet been rated
FS:Phillips66
Last Updated: Sep-19
Login to update fuel prices
SS:
Contact Okmulgee Regional AirportMore FBO Information
 
Add another FBO Facility Photos Catering Weather Repair Courtesy Rental Type 100LL JetA JetA+ MOGAS 8087
Services Transportation Aviation Fuel Prices: Prices include tax


model-print
model-print
model-print
model-print